createdAt,value
2023-01-17T00:02:31.632Z,5.23
2023-01-17T00:07:52.212Z,5.29
2023-01-17T00:13:00.219Z,5.17
2023-01-17T00:18:01.909Z,4.69
2023-01-17T00:23:34.745Z,4.77
2023-01-17T00:28:38.329Z,3.43
2023-01-17T00:33:39.983Z,2.40
2023-01-17T00:38:41.733Z,4.72
2023-01-17T00:44:01.995Z,4.96
2023-01-17T00:49:23.257Z,4.69
2023-01-17T00:54:43.426Z,3.86
2023-01-17T01:00:04.096Z,5.25
2023-01-17T01:05:24.267Z,4.52
2023-01-17T01:10:44.858Z,4.66
2023-01-17T01:16:05.344Z,4.35
2023-01-17T01:21:25.604Z,4.44
2023-01-17T01:26:46.007Z,4.81
2023-01-17T01:32:06.212Z,4.84
2023-01-17T01:37:07.989Z,4.91
2023-01-17T01:42:16.852Z,4.62
2023-01-17T01:47:30.908Z,4.89
2023-01-17T01:52:34.573Z,3.83
2023-01-17T01:57:41.913Z,4.45
2023-01-17T02:02:45.957Z,4.52
2023-01-17T02:07:57.506Z,4.72
2023-01-17T02:13:00.506Z,5.65
2023-01-17T02:18:11.133Z,5.36
2023-01-17T02:23:44.407Z,5.43
2023-01-17T02:29:21.367Z,5.37
2023-01-17T02:34:41.390Z,5.08
2023-01-17T02:39:56.148Z,5.44
2023-01-17T02:44:57.980Z,5.30
2023-01-17T02:50:10.296Z,5.18
2023-01-17T02:55:14.970Z,5.37
2023-01-17T03:00:31.847Z,5.59
2023-01-17T03:05:43.570Z,5.44
2023-01-17T03:10:46.121Z,5.88
2023-01-17T03:15:48.186Z,4.86
2023-01-17T03:20:49.889Z,3.17
2023-01-17T03:25:51.655Z,5.52
2023-01-17T03:30:53.399Z,5.18
2023-01-17T03:35:58.107Z,5.78
2023-01-17T03:40:59.824Z,4.45
2023-01-17T03:46:06.279Z,3.91
2023-01-17T03:51:08.055Z,3.63
2023-01-17T03:56:09.837Z,5.05
2023-01-17T04:01:12.182Z,5.36
2023-01-17T04:06:13.913Z,4.57
2023-01-17T04:11:15.577Z,4.42
2023-01-17T04:16:18.555Z,2.86
2023-01-17T04:21:20.571Z,3.36
2023-01-17T04:26:22.253Z,4.14
2023-01-17T04:31:23.970Z,3.64
2023-01-17T04:36:25.632Z,2.63
2023-01-17T04:41:27.300Z,4.03
2023-01-17T04:46:29.073Z,5.72
2023-01-17T04:51:30.827Z,6.02
2023-01-17T04:56:32.464Z,5.76
2023-01-17T05:01:34.200Z,5.75
2023-01-17T05:06:35.870Z,4.85
2023-01-17T05:11:37.660Z,3.58
2023-01-17T05:16:39.265Z,3.46
2023-01-17T05:21:40.920Z,3.53
2023-01-17T05:26:43.283Z,6.16
2023-01-17T05:31:44.877Z,3.50
2023-01-17T05:36:46.597Z,2.81
2023-01-17T05:41:48.280Z,3.68
2023-01-17T05:46:50.039Z,3.58
2023-01-17T05:51:54.155Z,3.06
2023-01-17T05:56:56.821Z,3.40
2023-01-17T06:01:58.423Z,6.16
2023-01-17T06:07:00.093Z,4.49
2023-01-17T06:12:01.858Z,4.80
2023-01-17T06:17:03.511Z,2.42
2023-01-17T06:22:05.224Z,4.81
2023-01-17T06:27:09.529Z,4.81
2023-01-17T06:32:11.266Z,3.41
2023-01-17T06:37:12.926Z,4.61
2023-01-17T06:42:14.662Z,7.20
2023-01-17T06:47:16.411Z,3.71
2023-01-17T06:52:18.101Z,3.39
2023-01-17T06:57:19.734Z,6.52
2023-01-17T07:02:21.406Z,5.09
2023-01-17T07:07:23.129Z,3.57
2023-01-17T07:12:24.761Z,3.74
2023-01-17T07:17:26.436Z,3.88
2023-01-17T07:22:28.142Z,3.21
2023-01-17T07:27:30.768Z,4.23
2023-01-17T07:32:32.436Z,4.47
2023-01-17T07:37:34.097Z,5.99
2023-01-17T07:42:35.773Z,4.12
2023-01-17T07:47:37.607Z,4.57
2023-01-17T07:52:39.336Z,5.86
2023-01-17T07:57:40.967Z,5.86
2023-01-17T08:02:42.601Z,5.94
2023-01-17T08:07:44.303Z,7.34
2023-01-17T08:12:47.283Z,6.51
2023-01-17T08:17:53.314Z,6.12
2023-01-17T08:22:56.620Z,5.95
2023-01-17T08:27:59.003Z,6.10
2023-01-17T08:33:00.708Z,6.56
2023-01-17T08:38:05.019Z,5.85
2023-01-17T08:43:06.701Z,6.93
2023-01-17T08:48:08.343Z,7.41
2023-01-17T08:53:10.801Z,6.65
2023-01-17T08:58:12.467Z,6.74
2023-01-17T09:03:14.457Z,6.40
2023-01-17T09:08:16.155Z,4.86
2023-01-17T09:13:17.744Z,7.09
2023-01-17T09:18:19.542Z,7.68
2023-01-17T09:23:29.835Z,5.91
2023-01-17T09:28:31.610Z,7.24
2023-01-17T09:33:33.212Z,6.62
2023-01-17T09:38:35.037Z,7.01
2023-01-17T09:43:41.036Z,5.57
2023-01-17T09:48:43.916Z,8.12
2023-01-17T09:53:45.727Z,7.34
2023-01-17T09:58:56.302Z,7.78
2023-01-17T10:04:22.712Z,7.02
2023-01-17T10:09:34.095Z,7.88
2023-01-17T10:14:51.702Z,5.81
2023-01-17T10:20:19.187Z,6.87
2023-01-17T10:25:43.042Z,8.18
2023-01-17T10:30:53.972Z,6.21
2023-01-17T10:36:03.894Z,7.16
2023-01-17T10:41:44.048Z,7.84
2023-01-17T10:46:55.017Z,6.10
2023-01-17T10:52:03.135Z,7.33
2023-01-17T10:57:05.206Z,7.06
2023-01-17T11:06:20.033Z,4.58
2023-01-17T11:11:24.952Z,3.75
2023-01-17T11:16:31.454Z,4.74
2023-01-17T11:21:33.552Z,5.31
2023-01-17T11:26:36.914Z,5.78
2023-01-17T11:31:38.481Z,5.36
2023-01-17T11:36:40.125Z,5.08
2023-01-17T11:41:42.223Z,5.98
2023-01-17T11:46:44.072Z,5.96
2023-01-17T11:51:45.672Z,5.45
2023-01-17T11:56:48.447Z,6.19
2023-01-17T12:01:49.985Z,6.33
2023-01-17T12:07:23.698Z,5.78
2023-01-17T12:12:46.845Z,5.36
2023-01-17T12:18:06.174Z,5.18
2023-01-17T12:23:46.597Z,5.95
2023-01-17T12:29:09.302Z,4.81
2023-01-17T12:34:47.178Z,5.60
2023-01-17T12:39:58.531Z,5.09
2023-01-17T12:45:09.775Z,6.42
2023-01-17T12:50:38.260Z,6.68
2023-01-17T12:55:49.872Z,6.04
2023-01-17T13:00:59.541Z,5.38
2023-01-17T13:06:02.807Z,6.00
2023-01-17T13:11:27.883Z,6.19
2023-01-17T13:16:47.820Z,6.90
2023-01-17T13:21:50.578Z,5.55
2023-01-17T13:27:16.801Z,4.93
2023-01-17T13:32:27.694Z,6.80
2023-01-17T13:37:31.950Z,7.32
2023-01-17T13:42:54.177Z,6.03
2023-01-17T13:48:12.933Z,5.42
2023-01-17T13:53:36.975Z,5.43
2023-01-17T13:58:51.727Z,6.24
2023-01-17T14:03:56.272Z,6.05
2023-01-17T14:09:07.733Z,6.53
2023-01-17T14:14:38.084Z,6.38
2023-01-17T14:19:39.733Z,5.19
2023-01-17T14:25:20.450Z,5.84
2023-01-17T14:30:29.252Z,5.31
2023-01-17T14:35:35.280Z,5.64
2023-01-17T14:40:38.617Z,5.97
2023-01-17T14:45:42.961Z,5.67
2023-01-17T14:50:46.132Z,5.56
2023-01-17T14:55:47.717Z,5.90
2023-01-17T15:00:54.783Z,5.90
2023-01-17T15:06:04.880Z,5.67
2023-01-17T15:11:17.120Z,6.51
2023-01-17T15:16:25.564Z,5.93
2023-01-17T15:21:30.027Z,5.88
2023-01-17T15:26:34.752Z,6.36
2023-01-17T15:31:41.361Z,4.92
2023-01-17T15:36:43.021Z,6.18
2023-01-17T15:41:44.656Z,7.43
2023-01-17T15:46:46.375Z,7.30
2023-01-17T15:51:50.937Z,5.60
2023-01-17T15:57:02.870Z,5.85
2023-01-17T16:02:22.876Z,4.38
2023-01-17T16:07:34.065Z,4.23
2023-01-17T16:12:35.769Z,4.39
2023-01-17T16:17:38.862Z,4.51
2023-01-17T16:22:40.509Z,4.37
2023-01-17T16:27:43.418Z,5.41
2023-01-17T16:32:49.667Z,4.73
2023-01-17T16:37:59.003Z,4.35
2023-01-17T16:43:01.091Z,4.39
2023-01-17T16:48:02.710Z,4.86
2023-01-17T16:53:04.368Z,5.10
2023-01-17T16:58:06.056Z,4.93
2023-01-17T17:03:07.767Z,5.06
2023-01-17T17:08:09.508Z,3.51
2023-01-17T17:13:11.288Z,4.48
2023-01-17T17:18:15.500Z,4.43
2023-01-17T17:23:17.191Z,6.03
2023-01-17T17:28:18.958Z,4.72
2023-01-17T17:33:20.740Z,5.12
2023-01-17T17:38:22.414Z,5.59
2023-01-17T17:43:26.395Z,6.41
2023-01-17T17:48:28.312Z,6.09
2023-01-17T17:53:30.333Z,6.10
2023-01-17T17:58:34.808Z,5.37
2023-01-17T18:03:36.491Z,5.39
2023-01-17T18:08:39.066Z,5.73
2023-01-17T18:13:42.811Z,5.10
2023-01-17T18:18:47.461Z,5.24
2023-01-17T18:23:52.486Z,4.32
2023-01-17T18:28:55.619Z,5.23
2023-01-17T18:34:26.185Z,4.75
2023-01-17T18:39:29.533Z,5.36
2023-01-17T18:44:31.253Z,5.58
2023-01-17T18:49:33.883Z,5.64
2023-01-17T19:11:38.327Z,4.01
2023-01-17T19:16:41.276Z,3.87
2023-01-17T19:21:43.718Z,3.47
2023-01-17T19:26:45.752Z,3.41
2023-01-17T19:31:47.576Z,4.45
2023-01-17T19:36:49.348Z,3.48
2023-01-17T19:41:51.154Z,3.73
2023-01-17T19:46:52.847Z,3.80
2023-01-17T19:51:54.719Z,4.09
2023-01-17T19:56:56.407Z,4.48
2023-01-17T20:01:58.211Z,5.02
2023-01-17T20:06:59.941Z,4.60
2023-01-17T20:12:01.627Z,5.38
2023-01-17T20:17:03.707Z,4.62
2023-01-17T20:22:05.495Z,3.79
2023-01-17T20:27:07.635Z,3.19
2023-01-17T20:32:09.411Z,2.73
2023-01-17T20:37:11.092Z,4.97
2023-01-17T20:42:12.796Z,4.68
2023-01-17T20:47:14.418Z,4.24
2023-01-17T20:52:16.664Z,4.13
2023-01-17T20:57:18.534Z,3.92
2023-01-17T21:02:20.508Z,4.25
2023-01-17T21:07:22.219Z,2.96
2023-01-17T21:12:24.007Z,2.51
2023-01-17T21:17:25.711Z,4.68
2023-01-17T21:22:28.923Z,2.90
2023-01-17T21:27:30.743Z,4.86
2023-01-17T21:32:32.422Z,4.52
2023-01-17T21:37:34.251Z,5.27
2023-01-17T21:42:35.953Z,5.37
2023-01-17T21:47:37.609Z,2.70
2023-01-17T21:52:39.286Z,2.84
2023-01-17T21:57:59.598Z,4.48
2023-01-17T22:03:01.427Z,4.20
2023-01-17T22:08:12.068Z,4.19
2023-01-17T22:13:20.055Z,4.25
2023-01-17T22:18:21.756Z,4.20
2023-01-17T22:23:24.463Z,5.39
2023-01-17T22:28:26.129Z,4.92
2023-01-17T22:33:27.964Z,2.37
2023-01-17T22:38:30.085Z,3.22
2023-01-17T22:43:31.787Z,3.17
2023-01-17T22:48:35.281Z,2.29
2023-01-17T22:53:41.597Z,1.99
2023-01-17T22:58:45.005Z,2.27
2023-01-17T23:03:52.331Z,2.36
2023-01-17T23:08:57.495Z,3.16
2023-01-17T23:13:59.230Z,2.40
2023-01-17T23:19:19.801Z,1.32
2023-01-17T23:24:21.497Z,1.20
2023-01-17T23:29:23.534Z,1.80
2023-01-17T23:34:25.339Z,1.86
2023-01-17T23:39:28.577Z,2.86
2023-01-17T23:44:31.797Z,2.60
2023-01-17T23:49:33.535Z,2.69
2023-01-17T23:54:35.253Z,2.61
2023-01-17T23:59:37.005Z,2.80
